createdAt,value
2023-04-15T00:01:19.414Z,13.47
2023-04-15T00:03:48.684Z,13.50
2023-04-15T00:06:19.478Z,13.54
2023-04-15T00:08:48.117Z,13.53
2023-04-15T00:11:16.509Z,13.51
2023-04-15T00:13:45.645Z,13.47
2023-04-15T00:16:14.060Z,13.39
2023-04-15T00:18:42.495Z,13.42
2023-04-15T00:21:10.800Z,13.44
2023-04-15T00:23:40.655Z,13.43
2023-04-15T00:26:09.620Z,13.46
2023-04-15T00:28:38.492Z,13.40
2023-04-15T00:31:06.970Z,13.34
2023-04-15T00:33:36.698Z,13.35
2023-04-15T00:36:08.579Z,13.35
2023-04-15T00:38:39.049Z,13.35
2023-04-15T00:41:09.149Z,13.15
2023-04-15T00:43:37.507Z,12.98
2023-04-15T00:46:07.585Z,12.90
2023-04-15T00:48:36.982Z,12.86
2023-04-15T00:51:05.496Z,12.88
2023-04-15T00:53:34.559Z,12.74
2023-04-15T00:56:02.876Z,12.75
2023-04-15T00:58:32.672Z,12.75
2023-04-15T01:01:01.967Z,12.83
2023-04-15T01:03:31.866Z,12.91
2023-04-15T01:06:03.617Z,12.90
2023-04-15T01:08:33.000Z,12.93
2023-04-15T01:11:03.638Z,12.98
2023-04-15T01:13:35.278Z,12.85
2023-04-15T01:16:04.002Z,12.92
2023-04-15T01:18:32.873Z,12.97
2023-04-15T01:21:03.672Z,12.95
2023-04-15T01:23:33.160Z,12.91
2023-04-15T01:26:03.549Z,12.83
2023-04-15T01:28:32.264Z,12.84
2023-04-15T01:31:10.775Z,12.80
2023-04-15T01:33:39.579Z,12.85
2023-04-15T01:36:10.031Z,12.77
2023-04-15T01:38:39.203Z,12.69
2023-04-15T01:41:09.100Z,12.68
2023-04-15T01:43:37.865Z,12.73
2023-04-15T01:46:07.287Z,12.67
2023-04-15T01:48:35.937Z,12.59
2023-04-15T01:51:05.674Z,12.51
2023-04-15T01:53:34.331Z,12.55
2023-04-15T01:56:04.301Z,12.40
2023-04-15T01:58:34.190Z,12.45
2023-04-15T02:01:03.060Z,12.32
2023-04-15T02:03:33.610Z,12.40
2023-04-15T02:06:02.509Z,12.37
2023-04-15T02:08:30.803Z,12.37
2023-04-15T02:11:01.168Z,12.40
2023-04-15T02:13:30.212Z,12.38
2023-04-15T02:16:01.037Z,12.33
2023-04-15T02:18:29.469Z,12.38
2023-04-15T02:20:58.558Z,12.32
2023-04-15T02:23:27.258Z,12.32
2023-04-15T02:25:55.716Z,12.31
2023-04-15T02:28:24.263Z,12.25
2023-04-15T02:30:53.734Z,12.26
2023-04-15T02:33:23.775Z,12.19
2023-04-15T02:35:53.256Z,12.20
2023-04-15T02:38:21.784Z,12.22
2023-04-15T02:40:51.086Z,12.22
2023-04-15T02:43:19.421Z,12.15
2023-04-15T02:45:48.460Z,12.22
2023-04-15T02:48:19.408Z,12.24
2023-04-15T02:50:49.032Z,12.23
2023-04-15T02:53:19.874Z,12.20
2023-04-15T02:55:48.343Z,12.23
2023-04-15T02:58:17.107Z,12.15
2023-04-15T03:00:45.523Z,12.02
2023-04-15T03:03:15.270Z,12.04
2023-04-15T03:05:43.781Z,11.88
2023-04-15T03:08:14.969Z,10.76
2023-04-15T03:10:43.324Z,11.70
2023-04-15T03:13:11.719Z,11.72
2023-04-15T03:15:40.666Z,11.87
2023-04-15T03:18:09.102Z,11.87
2023-04-15T03:20:37.514Z,11.85
2023-04-15T03:23:06.068Z,11.85
2023-04-15T03:25:37.436Z,11.86
2023-04-15T03:28:07.801Z,11.82
2023-04-15T03:30:36.364Z,11.73
2023-04-15T03:33:04.885Z,11.58
2023-04-15T03:35:33.961Z,11.54
2023-04-15T03:38:02.301Z,11.55
2023-04-15T03:40:30.740Z,11.42
2023-04-15T03:43:00.542Z,11.52
2023-04-15T03:45:28.915Z,11.42
2023-04-15T03:48:03.595Z,11.53
2023-04-15T03:50:39.711Z,11.56
2023-04-15T03:53:07.998Z,11.42
2023-04-15T03:55:36.360Z,11.45
2023-04-15T03:58:06.104Z,11.43
2023-04-15T04:00:34.493Z,11.39
2023-04-15T04:03:03.041Z,11.35
2023-04-15T04:05:31.782Z,11.37
2023-04-15T04:08:00.031Z,11.38
2023-04-15T04:10:28.402Z,11.37
2023-04-15T04:12:56.743Z,11.36
2023-04-15T04:15:27.105Z,11.33
2023-04-15T04:17:55.580Z,11.36
2023-04-15T04:20:25.115Z,10.39
2023-04-15T04:22:53.498Z,11.29
2023-04-15T04:25:21.997Z,11.24
2023-04-15T04:27:50.505Z,11.28
2023-04-15T04:30:18.932Z,11.24
2023-04-15T04:32:48.640Z,11.26
2023-04-15T04:35:17.086Z,11.15
2023-04-15T04:37:45.409Z,11.08
2023-04-15T04:40:14.879Z,11.11
2023-04-15T04:42:43.302Z,11.15
2023-04-15T04:45:12.373Z,11.10
2023-04-15T04:47:40.720Z,11.03
2023-04-15T04:50:11.672Z,11.07
2023-04-15T04:52:40.595Z,11.01
2023-04-15T04:55:09.679Z,10.98
2023-04-15T04:57:39.601Z,11.04
2023-04-15T05:00:10.833Z,11.03
2023-04-15T05:02:39.674Z,11.04
2023-04-15T05:05:10.968Z,11.03
2023-04-15T05:07:39.545Z,11.01
2023-04-15T05:10:09.864Z,11.05
2023-04-15T05:12:38.642Z,10.98
2023-04-15T05:15:09.120Z,11.07
2023-04-15T05:17:37.610Z,11.10
2023-04-15T05:20:07.502Z,11.21
2023-04-15T05:22:37.181Z,11.24
2023-04-15T05:25:06.606Z,11.30
2023-04-15T05:27:34.974Z,11.37
2023-04-15T05:30:03.385Z,11.43
2023-04-15T05:32:31.909Z,11.49
2023-04-15T05:35:00.285Z,11.55
2023-04-15T05:37:28.683Z,11.57
2023-04-15T05:39:58.369Z,11.72
2023-04-15T05:42:26.760Z,11.78
2023-04-15T05:44:55.185Z,11.94
2023-04-15T05:47:23.784Z,12.12
2023-04-15T05:49:52.226Z,12.26
2023-04-15T05:52:20.604Z,12.38
2023-04-15T05:54:48.931Z,12.54
2023-04-15T05:57:18.663Z,12.54
2023-04-15T05:59:47.153Z,12.49
2023-04-15T06:02:15.671Z,12.69
2023-04-15T06:04:44.073Z,12.72
2023-04-15T06:07:12.592Z,12.79
2023-04-15T06:09:41.220Z,12.83
2023-04-15T06:12:12.236Z,12.99
2023-04-15T06:14:42.225Z,12.79
2023-04-15T06:17:10.881Z,13.00
2023-04-15T06:19:39.366Z,13.20
2023-04-15T06:22:08.032Z,13.24
2023-04-15T06:24:37.127Z,12.80
2023-04-15T06:27:05.709Z,12.54
2023-04-15T06:29:34.439Z,12.73
2023-04-15T06:32:04.195Z,12.77
2023-04-15T06:34:32.606Z,12.82
2023-04-15T06:37:01.605Z,12.72
2023-04-15T06:39:30.018Z,12.83
2023-04-15T06:41:58.296Z,13.20
2023-04-15T06:44:26.786Z,13.46
2023-04-15T06:46:55.160Z,13.64
2023-04-15T06:49:24.897Z,13.80
2023-04-15T06:51:53.245Z,13.84
2023-04-15T06:54:21.828Z,13.96
2023-04-15T06:56:50.258Z,13.90
2023-04-15T06:59:19.153Z,14.00
2023-04-15T07:01:47.611Z,14.11
2023-04-15T07:04:16.390Z,14.11
2023-04-15T07:06:46.317Z,14.18
2023-04-15T07:09:15.885Z,14.22
2023-04-15T07:11:44.298Z,14.10
2023-04-15T07:14:13.394Z,14.25
2023-04-15T07:16:42.006Z,13.93
2023-04-15T07:19:10.599Z,13.95
2023-04-15T07:21:41.704Z,14.15
2023-04-15T07:24:11.916Z,14.12
2023-04-15T07:26:40.443Z,14.37
2023-04-15T07:29:08.871Z,14.51
2023-04-15T07:31:37.822Z,14.12
2023-04-15T07:34:08.023Z,13.69
2023-04-15T07:36:36.858Z,14.09
2023-04-15T07:39:06.040Z,14.28
2023-04-15T07:41:35.889Z,14.62
2023-04-15T07:44:04.268Z,14.82
2023-04-15T07:46:32.655Z,14.72
2023-04-15T07:49:01.627Z,14.79
2023-04-15T07:51:30.670Z,14.87
2023-04-15T07:53:58.980Z,14.71
2023-04-15T07:56:27.815Z,15.13
2023-04-15T07:58:57.507Z,15.09
2023-04-15T08:01:25.899Z,15.11
2023-04-15T08:03:55.441Z,14.99
2023-04-15T08:06:23.935Z,15.36
2023-04-15T08:08:52.725Z,15.60
2023-04-15T08:11:21.216Z,15.83
2023-04-15T08:13:49.587Z,15.96
2023-04-15T08:16:24.623Z,16.09
2023-04-15T08:18:56.622Z,16.35
2023-04-15T08:21:26.128Z,16.56
2023-04-15T08:23:55.545Z,16.84
2023-04-15T08:26:24.149Z,17.07
2023-04-15T08:28:52.506Z,17.23
2023-04-15T08:31:22.322Z,17.11
2023-04-15T08:33:52.084Z,17.08
2023-04-15T08:36:21.126Z,17.29
2023-04-15T08:38:49.415Z,16.97
2023-04-15T08:41:23.349Z,16.59
2023-04-15T08:43:59.065Z,17.07
2023-04-15T08:46:29.539Z,17.07
2023-04-15T08:49:00.535Z,16.93
2023-04-15T08:51:29.950Z,16.75
2023-04-15T08:53:58.329Z,16.49
2023-04-15T08:56:27.886Z,16.24
2023-04-15T08:58:56.790Z,16.58
2023-04-15T09:01:26.034Z,16.83
2023-04-15T09:03:56.478Z,17.00
2023-04-15T09:06:25.683Z,17.15
2023-04-15T09:08:54.202Z,16.84
2023-04-15T09:11:24.764Z,16.61
2023-04-15T09:13:53.256Z,16.90
2023-04-15T09:16:21.560Z,17.20
2023-04-15T09:18:50.023Z,17.30
2023-04-15T09:21:20.041Z,17.38
2023-04-15T09:23:59.287Z,17.48
2023-04-15T09:26:35.835Z,17.67
2023-04-15T09:29:07.925Z,17.80
2023-04-15T09:31:36.915Z,17.86
2023-04-15T09:34:05.498Z,17.98
2023-04-15T09:36:54.211Z,17.99
2023-04-15T09:39:22.697Z,17.95
2023-04-15T09:42:07.964Z,18.16
2023-04-15T09:44:36.736Z,18.33
2023-04-15T09:47:05.489Z,18.54
2023-04-15T09:49:34.261Z,18.40
2023-04-15T09:52:06.039Z,18.49
2023-04-15T09:54:37.389Z,18.54
2023-04-15T09:57:10.058Z,18.32
2023-04-15T09:59:38.720Z,18.13
2023-04-15T10:02:08.212Z,18.01
2023-04-15T10:04:41.568Z,18.00
2023-04-15T10:07:11.668Z,18.12
2023-04-15T10:09:41.325Z,18.24
2023-04-15T10:12:11.268Z,18.37
2023-04-15T10:14:40.969Z,18.44
2023-04-15T10:17:12.866Z,18.36
2023-04-15T10:19:42.929Z,18.45
2023-04-15T10:22:13.082Z,18.57
2023-04-15T10:24:42.660Z,18.59
2023-04-15T10:27:11.564Z,18.47
2023-04-15T10:29:40.112Z,18.68
2023-04-15T10:32:08.660Z,18.82
2023-04-15T10:34:38.355Z,19.15
2023-04-15T10:37:06.931Z,19.28
2023-04-15T10:39:44.616Z,19.36
2023-04-15T10:42:15.488Z,19.40
2023-04-15T10:44:46.158Z,19.27
2023-04-15T10:47:15.516Z,19.56
2023-04-15T10:49:50.032Z,19.51
2023-04-15T10:52:23.608Z,19.65
2023-04-15T10:55:04.750Z,19.54
2023-04-15T10:57:38.599Z,19.47
2023-04-15T11:00:15.893Z,19.29
2023-04-15T11:02:49.318Z,19.34
2023-04-15T11:05:19.506Z,19.25
2023-04-15T11:07:54.452Z,18.96
2023-04-15T11:10:55.140Z,19.21
2023-04-15T11:13:31.656Z,19.09
2023-04-15T11:16:02.151Z,19.16
2023-04-15T11:18:33.612Z,19.31
2023-04-15T11:21:05.115Z,19.29
2023-04-15T11:23:37.485Z,19.61
2023-04-15T11:26:11.985Z,19.70
2023-04-15T11:28:43.019Z,19.88
2023-04-15T11:31:13.168Z,19.84
2023-04-15T11:33:48.922Z,19.81
2023-04-15T11:36:17.821Z,19.85
2023-04-15T11:38:48.213Z,19.90
2023-04-15T11:41:23.308Z,19.97
2023-04-15T11:43:52.340Z,19.93
2023-04-15T11:46:21.508Z,19.86
2023-04-15T11:48:49.947Z,19.96
2023-04-15T11:51:18.596Z,19.73
2023-04-15T11:53:48.874Z,19.59
2023-04-15T11:56:23.984Z,19.39
2023-04-15T11:58:57.062Z,18.82
2023-04-15T12:01:33.581Z,18.81
2023-04-15T12:04:03.858Z,18.84
2023-04-15T12:06:36.889Z,18.83
2023-04-15T12:09:13.840Z,18.79
2023-04-15T12:11:48.391Z,18.89
2023-04-15T12:14:28.280Z,19.02
2023-04-15T12:17:00.258Z,18.86
2023-04-15T12:19:32.548Z,18.48
2023-04-15T12:22:04.163Z,18.61
2023-04-15T12:24:35.138Z,18.72
2023-04-15T12:27:06.638Z,18.82
2023-04-15T12:29:37.481Z,18.94
2023-04-15T12:32:08.647Z,18.86
2023-04-15T12:34:38.824Z,19.08
2023-04-15T12:37:10.135Z,19.06
2023-04-15T12:39:40.606Z,18.81
2023-04-15T12:42:11.409Z,19.09
2023-04-15T12:44:40.461Z,18.34
2023-04-15T12:47:10.670Z,18.34
2023-04-15T12:49:39.441Z,18.36
2023-04-15T12:52:08.118Z,18.22
2023-04-15T12:54:36.642Z,18.16
2023-04-15T12:57:07.172Z,17.85
2023-04-15T12:59:37.804Z,18.30
2023-04-15T13:02:06.589Z,18.47
2023-04-15T13:04:35.121Z,18.47
2023-04-15T13:07:03.802Z,18.42
2023-04-15T13:09:32.419Z,18.24
2023-04-15T13:12:05.357Z,18.28
2023-04-15T13:14:33.701Z,18.42
2023-04-15T13:17:08.889Z,18.42
2023-04-15T13:19:37.667Z,18.30
2023-04-15T13:22:06.973Z,18.33
2023-04-15T13:24:35.395Z,18.33
2023-04-15T13:27:04.326Z,18.23
2023-04-15T13:29:32.639Z,18.17
2023-04-15T13:32:02.532Z,18.02
2023-04-15T13:34:30.859Z,17.68
2023-04-15T13:36:59.228Z,17.59
2023-04-15T13:39:27.573Z,17.70
2023-04-15T13:41:55.996Z,17.72
2023-04-15T13:44:24.326Z,17.82
2023-04-15T13:46:53.294Z,17.82
2023-04-15T13:49:22.954Z,17.78
2023-04-15T13:51:52.134Z,17.64
2023-04-15T13:54:20.438Z,17.65
2023-04-15T13:56:48.714Z,17.61
2023-04-15T13:59:17.126Z,17.51
2023-04-15T14:01:45.566Z,17.65
2023-04-15T14:04:14.711Z,17.57
2023-04-15T14:06:44.610Z,17.59
2023-04-15T14:09:13.010Z,17.50
2023-04-15T14:11:41.481Z,17.21
2023-04-15T14:14:09.890Z,17.48
2023-04-15T14:16:38.244Z,17.34
2023-04-15T14:19:06.849Z,17.34
2023-04-15T14:21:35.461Z,17.28
2023-04-15T14:24:05.892Z,17.23
2023-04-15T14:26:34.269Z,17.09
2023-04-15T14:29:03.909Z,17.21
2023-04-15T14:31:32.425Z,17.17
2023-04-15T14:34:00.683Z,17.20
2023-04-15T14:36:29.102Z,17.17
2023-04-15T14:38:57.470Z,17.13
2023-04-15T14:41:27.245Z,17.17
2023-04-15T14:43:56.602Z,17.00
2023-04-15T14:46:24.929Z,16.95
2023-04-15T14:48:53.602Z,16.71
2023-04-15T14:51:21.951Z,16.68
2023-04-15T14:53:50.356Z,16.60
2023-04-15T14:56:18.665Z,16.39
2023-04-15T14:58:49.357Z,16.38
2023-04-15T15:01:17.711Z,16.51
2023-04-15T15:03:46.180Z,16.38
2023-04-15T15:06:14.694Z,16.32
2023-04-15T15:08:43.054Z,16.31
2023-04-15T15:11:11.641Z,16.28
2023-04-15T15:13:39.936Z,16.21
2023-04-15T15:16:11.396Z,16.08
2023-04-15T15:18:41.495Z,16.11
2023-04-15T15:21:09.859Z,15.93
2023-04-15T15:23:38.213Z,16.00
2023-04-15T15:26:07.118Z,15.98
2023-04-15T15:28:36.009Z,15.82
2023-04-15T15:31:05.350Z,15.60
2023-04-15T15:33:35.315Z,15.64
2023-04-15T15:36:05.328Z,15.48
2023-04-15T15:38:33.748Z,15.61
2023-04-15T15:41:02.076Z,15.46
2023-04-15T15:43:30.446Z,15.51
2023-04-15T15:45:58.736Z,15.51
2023-04-15T15:48:27.111Z,15.53
2023-04-15T15:50:57.729Z,15.35
2023-04-15T15:53:26.125Z,15.50
2023-04-15T15:55:54.486Z,15.43
2023-04-15T15:58:22.844Z,15.43
2023-04-15T16:00:51.299Z,15.37
2023-04-15T16:03:19.936Z,15.07
2023-04-15T16:05:48.442Z,15.28
2023-04-15T16:08:20.137Z,15.23
2023-04-15T16:10:48.549Z,15.22
2023-04-15T16:13:16.904Z,14.97
2023-04-15T16:15:45.301Z,14.97
2023-04-15T16:18:13.649Z,14.79
2023-04-15T16:20:42.091Z,14.76
2023-04-15T16:23:15.040Z,14.71
2023-04-15T16:25:45.819Z,14.65
2023-04-15T16:28:25.762Z,14.45
2023-04-15T16:30:55.563Z,14.38
2023-04-15T16:33:23.926Z,14.30
2023-04-15T16:35:53.067Z,14.46
2023-04-15T16:38:21.541Z,14.37
2023-04-15T16:40:51.535Z,14.46
2023-04-15T16:43:20.140Z,14.38
2023-04-15T16:45:51.028Z,14.32
2023-04-15T16:48:20.134Z,14.12
2023-04-15T16:50:49.639Z,13.96
2023-04-15T16:53:18.047Z,14.06
2023-04-15T16:55:46.417Z,13.90
2023-04-15T16:58:16.328Z,13.77
2023-04-15T17:00:45.199Z,13.75
2023-04-15T17:03:13.989Z,13.61
2023-04-15T17:05:42.949Z,13.71
2023-04-15T17:08:11.279Z,13.58
2023-04-15T17:10:39.794Z,13.37
2023-04-15T17:13:08.283Z,13.28
2023-04-15T17:15:38.139Z,13.29
2023-04-15T17:18:06.729Z,12.99
2023-04-15T17:20:35.527Z,13.17
2023-04-15T17:23:04.873Z,13.11
2023-04-15T17:25:33.112Z,13.14
2023-04-15T17:28:02.022Z,13.23
2023-04-15T17:30:30.661Z,13.15
2023-04-15T17:33:00.762Z,12.93
2023-04-15T17:35:29.282Z,12.90
2023-04-15T17:37:58.310Z,12.75
2023-04-15T17:40:26.673Z,12.80
2023-04-15T17:42:55.267Z,12.84
2023-04-15T17:45:23.610Z,12.86
2023-04-15T17:47:51.909Z,12.98
2023-04-15T17:50:22.476Z,12.93
2023-04-15T17:52:51.547Z,12.85
2023-04-15T17:55:22.112Z,12.81
2023-04-15T17:57:50.568Z,12.67
2023-04-15T18:00:19.052Z,12.57
2023-04-15T18:02:48.812Z,12.48
2023-04-15T18:05:18.823Z,12.53
2023-04-15T18:07:49.054Z,12.40
2023-04-15T18:10:17.518Z,12.30
2023-04-15T18:12:45.965Z,12.39
2023-04-15T18:15:14.560Z,12.22
2023-04-15T18:17:42.988Z,12.03
2023-04-15T18:20:12.829Z,12.14
2023-04-15T18:22:41.273Z,12.14
2023-04-15T18:25:11.632Z,12.10
2023-04-15T18:27:40.396Z,11.92
2023-04-15T18:30:10.515Z,11.82
2023-04-15T18:32:39.798Z,11.98
2023-04-15T18:35:09.258Z,11.94
2023-04-15T18:37:37.641Z,12.08
2023-04-15T18:40:08.596Z,12.04
2023-04-15T18:42:38.506Z,11.93
2023-04-15T18:45:08.303Z,11.93
2023-04-15T18:47:36.684Z,11.91
2023-04-15T18:50:05.302Z,11.98
2023-04-15T18:52:33.823Z,11.63
2023-04-15T18:55:03.387Z,11.85
2023-04-15T18:57:34.778Z,11.83
2023-04-15T19:00:08.241Z,11.72
2023-04-15T19:02:36.742Z,11.81
2023-04-15T19:05:06.996Z,11.96
2023-04-15T19:07:36.130Z,12.00
2023-04-15T19:10:05.087Z,11.83
2023-04-15T19:12:33.666Z,12.00
2023-04-15T19:15:01.967Z,12.02
2023-04-15T19:17:31.730Z,12.09
2023-04-15T19:20:00.157Z,12.06
2023-04-15T19:22:30.640Z,12.06
2023-04-15T19:24:59.134Z,12.08
2023-04-15T19:27:28.278Z,11.95
2023-04-15T19:29:56.676Z,11.82
2023-04-15T19:32:25.111Z,11.75
2023-04-15T19:34:54.937Z,11.83
2023-04-15T19:37:23.340Z,11.83
2023-04-15T19:39:51.673Z,11.84
2023-04-15T19:42:20.051Z,11.90
2023-04-15T19:44:48.471Z,11.87
2023-04-15T19:47:16.844Z,11.90
2023-04-15T19:49:45.278Z,11.91
2023-04-15T19:52:15.004Z,11.87
2023-04-15T19:54:43.368Z,11.92
2023-04-15T19:57:11.678Z,11.94
2023-04-15T19:59:40.048Z,11.24
2023-04-15T20:02:08.808Z,11.90
2023-04-15T20:04:37.313Z,11.79
2023-04-15T20:07:05.678Z,11.76
2023-04-15T20:09:35.530Z,11.65
2023-04-15T20:12:09.681Z,11.67
2023-04-15T20:14:52.432Z,11.61
2023-04-15T20:17:20.798Z,11.57
2023-04-15T20:19:49.164Z,11.16
2023-04-15T20:22:17.517Z,11.33
2023-04-15T20:24:47.385Z,11.34
2023-04-15T20:27:15.776Z,11.42
2023-04-15T20:29:44.110Z,11.50
2023-04-15T20:32:12.886Z,11.48
2023-04-15T20:34:41.275Z,11.50
2023-04-15T20:37:11.403Z,11.53
2023-04-15T20:39:41.338Z,11.68
2023-04-15T20:42:11.194Z,11.61
2023-04-15T20:44:39.615Z,11.63
2023-04-15T20:47:08.164Z,11.62
2023-04-15T20:49:36.858Z,11.65
2023-04-15T20:52:06.447Z,11.72
2023-04-15T20:54:35.048Z,11.55
2023-04-15T20:57:03.541Z,11.55
2023-04-15T20:59:34.829Z,11.54
2023-04-15T21:02:03.355Z,11.56
2023-04-15T21:04:31.789Z,11.62
2023-04-15T21:07:00.133Z,11.71
2023-04-15T21:09:28.458Z,11.77
2023-04-15T21:12:01.529Z,11.81
2023-04-15T21:14:31.011Z,11.66
2023-04-15T21:17:03.334Z,11.56
2023-04-15T21:19:31.730Z,11.80
2023-04-15T21:22:00.336Z,11.70
2023-04-15T21:24:29.146Z,11.58
2023-04-15T21:26:57.717Z,11.54
2023-04-15T21:29:26.605Z,11.63
2023-04-15T21:31:55.085Z,11.16
2023-04-15T21:34:25.029Z,11.67
2023-04-15T21:36:53.402Z,11.72
2023-04-15T21:39:21.801Z,11.55
2023-04-15T21:41:50.260Z,11.69
2023-04-15T21:44:18.638Z,11.83
2023-04-15T21:46:47.116Z,11.97
2023-04-15T21:49:16.091Z,11.99
2023-04-15T21:51:46.377Z,11.98
2023-04-15T21:54:14.750Z,12.08
2023-04-15T21:56:43.734Z,12.05
2023-04-15T21:59:12.177Z,11.79
2023-04-15T22:01:40.545Z,11.94
2023-04-15T22:04:10.916Z,11.90
2023-04-15T22:06:39.777Z,11.93
2023-04-15T22:09:11.997Z,12.00
2023-04-15T22:11:41.904Z,11.97
2023-04-15T22:14:10.528Z,11.95
2023-04-15T22:16:39.001Z,11.91
2023-04-15T22:19:07.585Z,11.91
2023-04-15T22:21:36.323Z,11.82
2023-04-15T22:24:38.818Z,11.76
2023-04-15T22:26:54.881Z,11.70
2023-04-15T22:29:23.369Z,11.70
2023-04-15T22:31:51.956Z,11.75
2023-04-15T22:34:21.591Z,11.69
2023-04-15T22:36:50.792Z,11.29
2023-04-15T22:39:19.703Z,11.22
2023-04-15T22:41:48.057Z,11.43
2023-04-15T22:44:17.818Z,11.47
2023-04-15T22:46:46.278Z,11.53
2023-04-15T22:49:14.511Z,11.50
2023-04-15T22:51:42.915Z,11.39
2023-04-15T22:54:11.335Z,11.50
2023-04-15T22:56:39.769Z,11.46
2023-04-15T22:59:08.344Z,11.53
2023-04-15T23:01:39.043Z,11.64
2023-04-15T23:04:09.615Z,11.56
2023-04-15T23:06:52.472Z,11.21
2023-04-15T23:09:20.996Z,11.48
2023-04-15T23:11:49.374Z,11.38
2023-04-15T23:14:17.742Z,11.63
2023-04-15T23:16:47.551Z,11.53
2023-04-15T23:19:15.996Z,11.73
2023-04-15T23:21:44.439Z,11.63
2023-04-15T23:24:13.425Z,11.71
2023-04-15T23:26:41.954Z,11.48
2023-04-15T23:29:11.301Z,11.50
2023-04-15T23:31:41.550Z,11.59
2023-04-15T23:34:11.471Z,11.74
2023-04-15T23:36:40.428Z,11.86
2023-04-15T23:39:09.129Z,11.91
2023-04-15T23:41:37.699Z,11.94
2023-04-15T23:44:07.159Z,11.83
2023-04-15T23:46:35.540Z,11.96
2023-04-15T23:49:03.900Z,11.95
2023-04-15T23:51:33.681Z,11.96
2023-04-15T23:54:02.059Z,11.95
2023-04-15T23:56:30.455Z,11.73
2023-04-15T23:58:58.831Z,11.81
